Date,TemperatureHighF,TemperatureAvgF,TemperatureLowF,DewpointHighF,DewpointAvgF,DewpointLowF,HumidityHigh,HumidityAvg,HumidityLow,PressureMaxIn,PressureMinIn,WindSpeedMaxMPH,WindSpeedAvgMPH,GustSpeedMaxMPH,PrecipitationSumIn
2013-2-1,50.5,42.9,37.1,45.0,41.1,36.3,99,93,79,30.41,30.33,6,0,7,0.00
2013-2-2,45.9,40.6,36.9,41.5,38.8,36.4,99,94,82,30.39,30.25,9,1,10,0.00
2013-2-3,47.1,41.5,37.1,42.5,39.9,36.0,98,94,84,30.30,30.20,9,1,12,0.00
2013-2-4,47.9,42.9,40.9,42.0,40.3,39.4,97,91,76,30.20,29.87,10,1,12,0.00
2013-2-5,45.7,42.0,40.3,43.2,40.3,38.6,98,94,87,29.90,29.82,20,7,24,0.00
2013-2-6,45.0,41.2,39.1,41.0,39.5,37.8,98,94,82,30.04,29.79,17,4,20,0.00
2013-2-7,50.5,40.0,33.6,40.3,35.9,31.5,98,86,65,30.19,29.78,21,4,29,0.00
2013-2-8,43.3,36.4,27.9,41.2,34.2,27.2,98,92,80,30.31,30.19,4,0,5,0.00
2013-2-9,43.7,39.3,35.9,38.9,37.3,34.8,97,93,79,30.33,30.26,3,0,4,0.02
2013-2-10,40.8,38.4,34.1,39.0,37.3,33.6,98,96,93,30.39,30.32,0,0,0,0.00
2013-2-11,45.9,40.8,38.0,40.1,38.6,37.4,98,92,78,30.36,30.32,8,0,9,0.00
2013-2-12,48.5,43.1,39.6,44.3,41.3,38.5,98,93,82,30.40,30.26,15,1,16,0.00
2013-2-13,47.3,43.0,39.8,43.0,41.1,39.2,98,93,84,30.49,30.31,7,0,8,0.00
2013-2-14,44.8,42.0,40.0,42.5,40.7,38.6,97,96,92,30.56,30.48,4,0,8,0.00
2013-2-15,54.2,42.6,34.7,47.4,40.2,33.9,99,92,65,30.55,30.11,6,0,7,0.00
2013-2-16,35.0,35.0,35.0,33.9,33.9,33.9,96,96,96,30.18,30.18,0,0,7,0.00
2013-2-18,38.9,37.5,36.9,34.5,33.8,32.7,89,87,82,29.80,29.77,2,0,4,0.00
2013-2-19,51.6,39.2,30.6,41.9,34.3,28.7,97,84,58,30.00,29.74,8,0,9,0.00
2013-2-20,41.9,36.8,30.5,38.2,34.9,28.9,98,93,81,30.04,29.98,12,1,14,0.00
2013-2-21,42.8,38.1,35.0,37.4,36.0,34.2,98,92,79,30.04,29.99,22,4,25,0.00
2013-2-22,45.2,38.2,31.5,41.5,34.9,29.4,96,88,73,29.88,29.66,30,5,31,0.00
2013-2-23,49.4,37.6,28.7,40.5,33.4,27.7,99,86,63,30.37,29.88,10,0,11,0.00
2013-2-24,43.2,39.5,35.6,38.5,35.9,33.4,93,87,77,30.36,29.94,23,6,31,0.00
2013-2-25,52.3,40.1,30.8,38.6,33.2,26.1,96,79,42,30.30,29.86,17,2,18,0.00
2013-2-26,44.7,37.5,29.4,37.1,33.3,27.8,98,86,65,30.34,30.18,17,4,19,0.00
2013-2-27,48.7,41.1,35.0,42.2,38.0,33.9,97,89,65,30.30,30.19,10,1,12,0.00
2013-2-28,49.2,43.9,39.4,47.2,42.7,38.6,99,96,91,30.31,30.18,27,4,28,0.00